createdAt,value
2022-12-01T00:01:30.141Z,21.93
2022-12-01T00:03:58.129Z,20.77
2022-12-01T00:06:27.456Z,21.27
2022-12-01T00:09:17.984Z,20.93
2022-12-01T00:11:47.717Z,21.73
2022-12-01T00:14:16.335Z,22.63
2022-12-01T00:16:44.914Z,22.00
2022-12-01T00:19:13.030Z,22.80
2022-12-01T00:21:42.435Z,23.07
2022-12-01T00:24:11.619Z,22.03
2022-12-01T00:26:40.232Z,21.07
2022-12-01T00:29:08.194Z,22.73
2022-12-01T00:31:36.450Z,22.33
2022-12-01T00:34:08.238Z,23.33
2022-12-01T00:36:39.419Z,22.13
2022-12-01T00:39:09.086Z,24.47
2022-12-01T00:41:37.038Z,25.57
2022-12-01T00:44:05.508Z,25.20
2022-12-01T00:46:33.530Z,24.93
2022-12-01T00:49:01.777Z,23.60
2022-12-01T00:51:29.765Z,23.57
2022-12-01T00:53:57.656Z,24.53
2022-12-01T00:56:26.936Z,23.23
2022-12-01T00:58:54.856Z,24.30
2022-12-01T01:01:22.855Z,21.83
2022-12-01T01:03:50.906Z,23.60
2022-12-01T01:06:19.005Z,24.00
2022-12-01T01:08:46.886Z,22.17
2022-12-01T01:11:14.822Z,22.83
2022-12-01T01:13:44.110Z,22.10
2022-12-01T01:16:16.102Z,21.10
2022-12-01T01:18:44.105Z,20.77
2022-12-01T01:21:15.304Z,21.17
2022-12-01T01:23:43.417Z,21.23
2022-12-01T01:26:15.017Z,21.97
2022-12-01T01:28:44.744Z,23.27
2022-12-01T01:31:14.425Z,23.80
2022-12-01T01:33:42.752Z,24.80
2022-12-01T01:36:11.265Z,23.77
2022-12-01T01:38:39.179Z,26.27
2022-12-01T01:41:08.268Z,25.57
2022-12-01T01:43:45.939Z,26.73
2022-12-01T01:46:16.406Z,26.57
2022-12-01T01:48:49.074Z,25.30
2022-12-01T01:51:20.526Z,26.47
2022-12-01T01:53:50.157Z,25.37
2022-12-01T01:56:18.261Z,25.77
2022-12-01T01:58:48.074Z,26.00
2022-12-01T02:01:15.993Z,26.27
2022-12-01T02:03:44.768Z,24.67
2022-12-01T02:06:13.678Z,26.40
2022-12-01T02:08:41.516Z,27.03
2022-12-01T02:11:34.510Z,27.77
2022-12-01T02:14:10.589Z,28.10
2022-12-01T02:16:47.822Z,27.70
2022-12-01T02:19:43.534Z,28.10
2022-12-01T02:22:24.168Z,28.17
2022-12-01T02:25:28.631Z,28.13
2022-12-01T02:28:33.924Z,28.63
2022-12-01T02:31:10.545Z,29.57
2022-12-01T02:33:44.855Z,28.53
2022-12-01T02:36:20.815Z,28.30
2022-12-01T02:38:55.333Z,27.73
2022-12-01T02:41:29.492Z,28.70
2022-12-01T02:44:04.213Z,28.70
2022-12-01T02:46:38.370Z,29.27
2022-12-01T02:49:09.685Z,28.30
2022-12-01T02:51:39.413Z,27.17
2022-12-01T02:54:07.619Z,29.10
2022-12-01T02:56:35.641Z,26.60
2022-12-01T02:59:03.674Z,28.50
2022-12-01T03:01:45.021Z,26.93
2022-12-01T03:04:30.388Z,28.27
2022-12-01T03:07:08.247Z,27.13
2022-12-01T03:09:48.066Z,27.93
2022-12-01T03:12:24.462Z,29.50
2022-12-01T03:15:02.072Z,29.07
2022-12-01T03:17:38.241Z,29.70
2022-12-01T03:20:11.685Z,28.87
2022-12-01T03:22:45.050Z,27.30
2022-12-01T03:25:14.282Z,31.53
2022-12-01T03:28:00.901Z,28.90
2022-12-01T03:30:36.595Z,30.03
2022-12-01T03:33:10.653Z,28.33
2022-12-01T03:35:43.650Z,28.33
2022-12-01T03:38:18.355Z,29.20
2022-12-01T03:40:49.014Z,29.87
2022-12-01T03:43:29.710Z,30.97
2022-12-01T03:46:05.856Z,28.97
2022-12-01T03:48:35.498Z,30.47
2022-12-01T03:51:12.692Z,30.47
2022-12-01T03:53:50.109Z,29.10
2022-12-01T03:56:21.374Z,29.27
2022-12-01T03:58:52.317Z,29.40
2022-12-01T04:01:22.249Z,29.90
2022-12-01T04:03:51.598Z,29.33
2022-12-01T04:06:19.495Z,29.83
2022-12-01T04:08:47.373Z,30.73
2022-12-01T04:11:32.997Z,29.20
2022-12-01T04:14:01.097Z,28.03
2022-12-01T04:16:29.051Z,30.03
2022-12-01T04:18:58.434Z,30.43
2022-12-01T04:21:26.371Z,29.30
2022-12-01T04:24:03.370Z,29.53
2022-12-01T04:26:33.178Z,30.03
2022-12-01T04:29:01.605Z,29.57
2022-12-01T04:31:29.836Z,29.23
2022-12-01T04:34:00.585Z,30.50
2022-12-01T04:36:31.964Z,31.30
2022-12-01T04:39:00.201Z,31.57
2022-12-01T04:41:28.183Z,31.30
2022-12-01T04:43:56.346Z,31.20
2022-12-01T04:46:25.558Z,31.03
2022-12-01T04:48:53.541Z,30.73
2022-12-01T04:51:23.185Z,31.17
2022-12-01T04:53:51.146Z,30.70
2022-12-01T04:56:19.160Z,31.00
2022-12-01T04:58:47.213Z,31.13
2022-12-01T05:01:17.208Z,32.53
2022-12-01T05:03:46.694Z,31.50
2022-12-01T05:06:16.939Z,30.77
2022-12-01T05:08:46.672Z,30.37
2022-12-01T05:11:15.536Z,30.67
2022-12-01T05:13:45.095Z,30.23
2022-12-01T05:16:14.858Z,30.90
2022-12-01T05:18:45.784Z,31.87
2022-12-01T05:21:12.804Z,32.27
2022-12-01T05:23:40.706Z,31.23
2022-12-01T05:26:10.550Z,30.40
2022-12-01T05:28:39.091Z,32.37
2022-12-01T05:31:07.185Z,32.87
2022-12-01T05:33:35.068Z,31.67
2022-12-01T05:36:02.998Z,34.33
2022-12-01T05:38:30.896Z,32.90
2022-12-01T05:40:58.764Z,32.57
2022-12-01T05:43:29.625Z,32.83
2022-12-01T05:45:58.370Z,32.03
2022-12-01T05:48:26.823Z,32.90
2022-12-01T05:50:54.783Z,31.50
2022-12-01T05:53:23.176Z,32.00
2022-12-01T05:55:54.181Z,32.90
2022-12-01T05:58:22.109Z,33.53
2022-12-01T06:00:51.347Z,32.63
2022-12-01T06:03:19.320Z,32.20
2022-12-01T06:05:47.282Z,31.47
2022-12-01T06:08:15.409Z,31.93
2022-12-01T06:10:43.417Z,32.47
2022-12-01T06:13:11.639Z,31.70
2022-12-01T06:15:39.562Z,32.53
2022-12-01T06:18:08.874Z,29.80
2022-12-01T06:20:36.973Z,29.53
2022-12-01T06:23:04.927Z,32.03
2022-12-01T06:25:32.854Z,31.37
2022-12-01T06:28:01.127Z,29.13
2022-12-01T06:30:28.985Z,29.63
2022-12-01T06:32:56.868Z,30.47
2022-12-01T06:35:26.094Z,29.43
2022-12-01T06:37:54.861Z,30.43
2022-12-01T06:40:23.123Z,30.43
2022-12-01T06:42:51.055Z,32.73
2022-12-01T06:45:19.027Z,30.73
2022-12-01T06:47:48.099Z,34.10
2022-12-01T06:50:16.197Z,33.93
2022-12-01T06:52:45.646Z,31.33
2022-12-01T06:55:13.783Z,33.07
2022-12-01T06:57:43.268Z,33.83
2022-12-01T07:00:12.629Z,34.93
2022-12-01T07:02:41.075Z,33.53
2022-12-01T07:05:09.730Z,35.90
2022-12-01T07:07:38.564Z,33.40
2022-12-01T07:10:10.395Z,34.27
2022-12-01T07:12:38.434Z,33.83
2022-12-01T07:15:08.855Z,33.57
2022-12-01T07:17:37.407Z,33.10
2022-12-01T07:20:06.134Z,32.97
2022-12-01T07:22:34.067Z,33.73
2022-12-01T07:25:01.925Z,33.20
2022-12-01T07:27:32.704Z,33.40
2022-12-01T07:30:00.644Z,33.83
2022-12-01T07:32:28.641Z,31.70
2022-12-01T07:34:56.560Z,34.43
2022-12-01T07:37:25.254Z,34.60
2022-12-01T07:39:53.122Z,33.07
2022-12-01T07:42:20.998Z,33.50
2022-12-01T07:44:50.296Z,33.37
2022-12-01T07:47:19.195Z,33.47
2022-12-01T07:49:47.495Z,32.97
2022-12-01T07:52:15.772Z,33.27
2022-12-01T07:54:43.716Z,31.73
2022-12-01T07:57:14.297Z,31.53
2022-12-01T07:59:42.565Z,32.80
2022-12-01T08:02:12.330Z,30.57
2022-12-01T08:04:40.833Z,29.00
2022-12-01T08:07:08.847Z,31.50
2022-12-01T08:09:37.199Z,30.10
2022-12-01T08:12:05.494Z,30.43
2022-12-01T08:14:33.757Z,29.97
2022-12-01T08:17:01.648Z,29.30
2022-12-01T08:19:32.023Z,30.13
2022-12-01T08:21:59.925Z,27.83
2022-12-01T08:24:28.040Z,28.73
2022-12-01T08:26:55.913Z,27.83
2022-12-01T08:29:23.819Z,26.93
2022-12-01T08:31:51.766Z,28.10
2022-12-01T08:34:19.761Z,26.10
2022-12-01T08:36:49.021Z,28.87
2022-12-01T08:39:17.146Z,27.57
2022-12-01T08:41:45.067Z,27.00
2022-12-01T08:44:13.192Z,27.33
2022-12-01T08:46:41.246Z,27.33
2022-12-01T08:49:09.187Z,27.17
2022-12-01T08:51:37.418Z,27.30
2022-12-01T08:54:07.075Z,27.30
2022-12-01T08:56:37.589Z,28.03
2022-12-01T08:59:06.424Z,26.70
2022-12-01T09:01:34.816Z,27.10
2022-12-01T09:04:08.488Z,27.30
2022-12-01T09:06:40.824Z,27.23
2022-12-01T09:09:11.301Z,27.47
2022-12-01T09:11:39.954Z,26.40
2022-12-01T09:14:08.095Z,26.77
2022-12-01T09:16:36.380Z,25.07
2022-12-01T09:19:04.879Z,25.07
2022-12-01T09:21:34.774Z,23.93
2022-12-01T09:24:03.594Z,24.73
2022-12-01T09:26:33.341Z,24.07
2022-12-01T09:29:06.273Z,24.13
2022-12-01T09:31:34.499Z,24.30
2022-12-01T09:34:03.883Z,24.93
2022-12-01T09:36:35.254Z,23.97
2022-12-01T09:39:04.049Z,23.97
2022-12-01T09:41:36.321Z,23.67
2022-12-01T09:44:14.159Z,24.27
2022-12-01T09:46:47.911Z,23.93
2022-12-01T09:49:20.201Z,23.97
2022-12-01T09:51:48.321Z,24.10
2022-12-01T09:54:16.438Z,22.47
2022-12-01T09:56:49.415Z,22.43
2022-12-01T09:59:22.532Z,23.43
2022-12-01T10:01:54.902Z,23.90
2022-12-01T10:04:30.097Z,22.53
2022-12-01T10:07:01.886Z,22.53
2022-12-01T10:09:40.271Z,23.10
2022-12-01T10:12:17.516Z,23.30
2022-12-01T10:14:46.364Z,23.53
2022-12-01T10:17:27.672Z,22.07
2022-12-01T10:20:04.145Z,22.40
2022-12-01T10:22:53.872Z,22.17
2022-12-01T10:25:24.204Z,22.73
2022-12-01T10:28:15.540Z,22.00
2022-12-01T10:30:50.984Z,22.57
2022-12-01T10:33:24.636Z,21.57
2022-12-01T10:35:53.403Z,20.13
2022-12-01T10:38:27.990Z,19.60
2022-12-01T10:40:58.487Z,20.33
2022-12-01T10:43:32.757Z,21.50
2022-12-01T10:46:02.448Z,19.50
2022-12-01T10:48:30.576Z,19.27
2022-12-01T10:51:16.875Z,20.50
2022-12-01T10:53:44.809Z,20.20
2022-12-01T10:56:16.419Z,19.37
2022-12-01T10:58:50.239Z,20.57
2022-12-01T11:01:22.058Z,21.03
2022-12-01T11:03:57.673Z,19.83
2022-12-01T11:06:27.778Z,20.70
2022-12-01T11:08:58.946Z,20.17
2022-12-01T11:11:32.059Z,19.50
2022-12-01T11:14:08.418Z,18.90
2022-12-01T11:16:41.004Z,19.23
2022-12-01T11:19:28.004Z,19.50
2022-12-01T11:21:57.978Z,19.90
2022-12-01T11:24:33.630Z,18.53
2022-12-01T11:27:02.346Z,19.00
2022-12-01T11:29:36.226Z,19.77
2022-12-01T11:32:17.787Z,19.50
2022-12-01T11:34:51.487Z,20.43
2022-12-01T11:37:24.028Z,20.10
2022-12-01T11:39:53.073Z,19.70
2022-12-01T11:42:25.120Z,18.83
2022-12-01T11:44:57.009Z,20.33
2022-12-01T11:47:27.004Z,19.50
2022-12-01T11:49:57.603Z,18.77
2022-12-01T11:52:30.143Z,19.10
2022-12-01T11:55:05.584Z,19.23
2022-12-01T11:57:38.696Z,19.50
2022-12-01T12:00:14.748Z,20.30
2022-12-01T12:02:53.956Z,19.03
2022-12-01T12:05:42.498Z,18.60
2022-12-01T12:08:17.523Z,18.67
2022-12-01T12:10:56.863Z,18.13
2022-12-01T12:13:46.041Z,19.43
2022-12-01T12:16:26.292Z,19.17
2022-12-01T12:19:10.318Z,20.60
2022-12-01T12:21:45.870Z,20.20
2022-12-01T12:24:29.369Z,20.73
2022-12-01T12:27:05.546Z,19.23
2022-12-01T12:29:50.112Z,21.13
2022-12-01T12:32:35.367Z,21.07
2022-12-01T12:35:18.909Z,19.67
2022-12-01T12:37:55.681Z,19.60
2022-12-01T12:40:55.770Z,19.63
2022-12-01T12:43:31.535Z,19.63
2022-12-01T12:46:04.601Z,19.20
2022-12-01T12:49:19.270Z,20.37
2022-12-01T12:51:51.661Z,21.53
2022-12-01T12:54:28.260Z,20.83
2022-12-01T12:57:01.455Z,20.43
2022-12-01T12:59:35.393Z,20.40
2022-12-01T13:02:13.524Z,20.40
2022-12-01T13:04:49.094Z,20.47
2022-12-01T13:07:33.247Z,20.50
2022-12-01T13:10:08.047Z,20.40
2022-12-01T13:12:40.390Z,19.87
2022-12-01T13:15:16.557Z,20.23
2022-12-01T13:17:49.247Z,20.17
2022-12-01T13:20:22.175Z,20.97
2022-12-01T13:22:51.040Z,21.50
2022-12-01T13:25:24.122Z,20.70
2022-12-01T13:27:53.278Z,20.07
2022-12-01T13:30:23.844Z,19.03
2022-12-01T13:32:59.843Z,19.77
2022-12-01T13:35:31.878Z,19.57
2022-12-01T13:38:21.384Z,18.97
2022-12-01T13:40:50.157Z,18.50
2022-12-01T13:43:21.303Z,17.50
2022-12-01T13:45:50.673Z,18.07
2022-12-01T13:48:30.522Z,17.77
2022-12-01T13:51:02.729Z,18.80
2022-12-01T13:53:36.124Z,17.57
2022-12-01T13:56:28.487Z,17.53
2022-12-01T13:59:03.604Z,17.30
2022-12-01T14:01:46.446Z,17.50
2022-12-01T14:04:32.408Z,16.63
2022-12-01T14:07:27.517Z,16.80
2022-12-01T14:09:59.958Z,17.73
2022-12-01T14:12:31.448Z,16.87
2022-12-01T14:15:03.900Z,16.90
2022-12-01T14:17:34.658Z,18.27
2022-12-01T14:20:08.658Z,18.03
2022-12-01T14:22:40.172Z,18.17
2022-12-01T14:25:25.634Z,17.47
2022-12-01T14:27:56.165Z,19.60
2022-12-01T14:31:03.305Z,18.53
2022-12-01T14:33:52.056Z,18.33
2022-12-01T14:36:30.402Z,18.27
2022-12-01T14:39:06.869Z,18.90
2022-12-01T14:41:44.409Z,18.57
2022-12-01T14:44:24.090Z,19.90
2022-12-01T14:46:55.747Z,18.73
2022-12-01T14:49:27.435Z,20.17
2022-12-01T14:52:00.012Z,18.77
2022-12-01T14:54:34.046Z,18.93
2022-12-01T14:57:07.492Z,20.07
2022-12-01T14:59:37.372Z,19.17
2022-12-01T15:02:09.864Z,19.40
2022-12-01T15:05:08.136Z,18.67
2022-12-01T15:07:39.319Z,19.73
2022-12-01T15:10:18.122Z,19.43
2022-12-01T15:12:46.341Z,19.93
2022-12-01T15:15:23.578Z,19.53
2022-12-01T15:17:53.003Z,19.03
2022-12-01T15:20:33.996Z,19.23
2022-12-01T15:23:08.937Z,19.80
2022-12-01T15:25:38.354Z,20.63
2022-12-01T15:28:14.791Z,21.33
2022-12-01T15:30:44.466Z,20.37
2022-12-01T15:33:25.539Z,20.57
2022-12-01T15:35:56.025Z,22.23
2022-12-01T15:38:32.149Z,26.07
2022-12-01T15:43:56.990Z,20.13
2022-12-01T15:46:29.668Z,21.10
2022-12-01T15:49:17.946Z,19.37
2022-12-01T15:51:46.768Z,20.70
2022-12-01T15:54:21.530Z,22.30
2022-12-01T15:56:55.214Z,20.50
2022-12-01T15:59:29.795Z,20.73
2022-12-01T16:01:58.198Z,21.00
2022-12-01T16:04:29.055Z,20.47
2022-12-01T16:06:59.804Z,19.53
2022-12-01T16:09:33.156Z,19.33
2022-12-01T16:12:07.572Z,19.67
2022-12-01T16:14:36.077Z,21.00
2022-12-01T16:17:05.381Z,19.50
2022-12-01T16:19:35.958Z,20.30
2022-12-01T16:22:16.551Z,18.83
2022-12-01T16:24:48.565Z,19.83
2022-12-01T16:27:23.455Z,24.20
2022-12-01T16:29:53.572Z,19.63
2022-12-01T16:32:27.983Z,20.30
2022-12-01T16:34:55.980Z,20.47
2022-12-01T16:37:24.014Z,19.60
2022-12-01T16:39:51.896Z,18.37
2022-12-01T16:42:22.622Z,19.67
2022-12-01T16:44:51.686Z,19.13
2022-12-01T16:47:22.819Z,20.00
2022-12-01T16:49:51.019Z,20.30
2022-12-01T16:55:25.620Z,22.07
2022-12-01T16:57:55.326Z,21.40
2022-12-01T17:00:23.938Z,21.40
2022-12-01T17:02:52.751Z,20.23
2022-12-01T17:05:20.801Z,20.33
2022-12-01T17:07:48.937Z,21.07
2022-12-01T17:10:17.675Z,21.03
2022-12-01T17:12:45.577Z,21.77
2022-12-01T17:15:14.921Z,22.27
2022-12-01T17:17:42.860Z,21.40
2022-12-01T17:20:11.805Z,21.47
2022-12-01T17:22:39.954Z,20.83
2022-12-01T17:25:09.679Z,20.83
2022-12-01T17:27:37.945Z,21.43
2022-12-01T17:30:06.980Z,21.73
2022-12-01T17:32:36.428Z,20.33
2022-12-01T17:35:04.852Z,21.60
2022-12-01T17:37:32.925Z,21.53
2022-12-01T17:40:00.818Z,23.03
2022-12-01T17:42:31.131Z,24.53
2022-12-01T17:44:59.225Z,22.40
2022-12-01T17:47:27.798Z,23.80
2022-12-01T17:49:57.056Z,23.70
2022-12-01T17:52:28.332Z,25.77
2022-12-01T17:54:57.021Z,23.60
2022-12-01T17:57:25.041Z,22.40
2022-12-01T17:59:53.120Z,22.10
2022-12-01T18:02:21.198Z,22.03
2022-12-01T18:04:49.862Z,23.70
2022-12-01T18:07:19.542Z,22.47
2022-12-01T18:09:47.737Z,23.13
2022-12-01T18:12:15.697Z,21.60
2022-12-01T18:14:43.652Z,23.67
2022-12-01T18:17:11.605Z,23.93
2022-12-01T18:19:40.473Z,22.53
2022-12-01T18:22:08.362Z,23.37
2022-12-01T18:24:37.756Z,24.00
2022-12-01T18:27:05.758Z,24.40
2022-12-01T18:29:33.964Z,23.93
2022-12-01T18:32:05.631Z,23.97
2022-12-01T18:34:33.943Z,24.90
2022-12-01T18:37:03.082Z,25.07
2022-12-01T18:39:30.977Z,23.80
2022-12-01T18:42:00.269Z,25.67
2022-12-01T18:44:28.403Z,25.23
2022-12-01T18:46:57.722Z,25.07
2022-12-01T18:49:25.794Z,25.30
2022-12-01T18:51:54.017Z,26.03
2022-12-01T18:54:22.032Z,25.57
2022-12-01T18:56:52.601Z,24.47
2022-12-01T18:59:22.736Z,26.10
2022-12-01T19:01:50.747Z,26.57
2022-12-01T19:04:19.191Z,25.70
2022-12-01T19:06:47.251Z,25.97
2022-12-01T19:09:16.740Z,27.73
2022-12-01T19:11:44.991Z,25.40
2022-12-01T19:14:16.515Z,27.73
2022-12-01T19:16:46.620Z,26.63
2022-12-01T19:19:14.724Z,28.27
2022-12-01T19:21:42.963Z,27.57
2022-12-01T19:24:10.945Z,25.23
2022-12-01T19:26:39.178Z,26.73
2022-12-01T19:29:07.133Z,26.20
2022-12-01T19:31:35.203Z,24.90
2022-12-01T19:34:04.814Z,26.83
2022-12-01T19:36:32.936Z,26.77
2022-12-01T19:39:04.370Z,27.50
2022-12-01T19:41:35.165Z,28.33
2022-12-01T19:44:03.213Z,27.33
2022-12-01T19:46:31.151Z,27.07
2022-12-01T19:49:01.208Z,27.00
2022-12-01T19:51:32.467Z,27.40
2022-12-01T19:54:00.540Z,28.67
2022-12-01T19:56:29.517Z,28.37
2022-12-01T19:58:58.070Z,26.93
2022-12-01T20:01:27.051Z,26.63
2022-12-01T20:03:55.849Z,28.00
2022-12-01T20:06:27.278Z,27.83
2022-12-01T20:08:58.683Z,27.10
2022-12-01T20:11:29.592Z,27.47
2022-12-01T20:13:57.530Z,26.93
2022-12-01T20:16:27.646Z,27.10
2022-12-01T20:18:56.163Z,29.13
2022-12-01T20:21:25.853Z,29.40
2022-12-01T20:23:59.186Z,29.67
2022-12-01T20:26:31.948Z,28.87
2022-12-01T20:29:02.730Z,27.47
2022-12-01T20:31:32.814Z,28.50
2022-12-01T20:34:02.557Z,27.40
2022-12-01T20:36:30.998Z,26.70
2022-12-01T20:39:00.593Z,26.83
2022-12-01T20:41:28.589Z,26.70
2022-12-01T20:43:56.482Z,27.00
2022-12-01T20:46:24.726Z,28.27
2022-12-01T20:48:52.808Z,26.10
2022-12-01T20:51:20.777Z,30.07
2022-12-01T20:54:12.316Z,28.50
2022-12-01T20:56:38.112Z,26.40
2022-12-01T20:59:07.318Z,24.77
2022-12-01T21:01:35.883Z,26.53
2022-12-01T21:04:04.049Z,26.77
2022-12-01T21:06:32.194Z,26.60
2022-12-01T21:09:00.608Z,26.10
2022-12-01T21:11:44.501Z,27.30
2022-12-01T21:14:18.771Z,26.43
2022-12-01T21:16:49.305Z,25.73
2022-12-01T21:19:24.925Z,26.03
2022-12-01T21:21:52.876Z,26.50
2022-12-01T21:24:22.273Z,27.10
2022-12-01T21:26:54.860Z,26.30
2022-12-01T21:29:25.858Z,27.20
2022-12-01T21:31:55.470Z,26.07
2022-12-01T21:34:26.555Z,24.67
2022-12-01T21:36:57.358Z,27.17
2022-12-01T21:39:26.424Z,26.60
2022-12-01T21:41:57.274Z,25.73
2022-12-01T21:44:33.448Z,26.00
2022-12-01T21:47:14.360Z,25.20
2022-12-01T21:49:43.675Z,26.97
2022-12-01T21:52:16.244Z,25.30
2022-12-01T21:54:44.215Z,27.10
2022-12-01T21:57:30.214Z,26.20
2022-12-01T22:00:24.102Z,25.23
2022-12-01T22:03:06.794Z,26.40
2022-12-01T22:05:39.412Z,26.63
2022-12-01T22:08:18.040Z,25.20
2022-12-01T22:10:57.716Z,26.20
2022-12-01T22:13:28.285Z,25.77
2022-12-01T22:15:58.247Z,26.70
2022-12-01T22:18:32.923Z,25.63
2022-12-01T22:21:10.923Z,26.20
2022-12-01T22:23:41.455Z,27.43
2022-12-01T22:26:18.732Z,25.77
2022-12-01T22:28:48.973Z,26.33
2022-12-01T22:31:23.525Z,24.53
2022-12-01T22:34:02.681Z,24.33
2022-12-01T22:36:35.272Z,25.27
2022-12-01T22:39:13.598Z,25.10
2022-12-01T22:41:43.421Z,25.87
2022-12-01T22:44:15.344Z,24.00
2022-12-01T22:46:46.596Z,23.63
2022-12-01T22:49:20.123Z,25.93
2022-12-01T22:51:50.268Z,24.50
2022-12-01T22:54:31.321Z,24.50
2022-12-01T22:57:17.497Z,24.63
2022-12-01T22:59:47.687Z,25.63
2022-12-01T23:02:22.478Z,25.27
2022-12-01T23:04:53.267Z,26.27
2022-12-01T23:07:32.847Z,24.73
2022-12-01T23:10:07.113Z,25.90
2022-12-01T23:12:36.911Z,25.53
2022-12-01T23:15:23.628Z,26.67
2022-12-01T23:17:53.151Z,26.47
2022-12-01T23:20:32.315Z,26.37
2022-12-01T23:23:02.367Z,27.70
2022-12-01T23:25:30.656Z,29.40
2022-12-01T23:28:01.349Z,28.43
2022-12-01T23:30:29.418Z,27.53
2022-12-01T23:33:10.798Z,29.23
2022-12-01T23:35:42.553Z,29.87
2022-12-01T23:38:16.545Z,29.63
2022-12-01T23:40:44.643Z,29.37
2022-12-01T23:43:19.779Z,30.23
2022-12-01T23:45:48.663Z,30.07
2022-12-01T23:48:23.655Z,29.33
2022-12-01T23:50:54.463Z,28.30
2022-12-01T23:53:28.428Z,29.63
2022-12-01T23:55:57.801Z,28.00
2022-12-01T23:58:25.798Z,29.07
